Adrian, IL

2:42 PM CST on November 27, 2014 (GMT -0600)
Chem Gro Inc. | Change Station
CLOSE
Current Station
Personal Weather Station
Location: Adrian, IL
Elevation: 705 ft
Nearby Weather Stations

Elev 705 ft 40.52 °N, 91.17 °W | Updated 3 seconds ago

Clear
Clear
19.2 °F
Feels Like 7 °F
N
11.6
Wind Variable Wind from NW
Gusts 11.6 mph

Today
High -- | Low -- °F
--% Chance of Precip.
Yesterday
High -- | Low -- °F
Precip. -- in
7:04 AM 4:39 PM
Waxing Crescent, 32% visible
Pressure 30.47 in
Visibility 10.0 miles
Clouds Clear
Windchill 7 °F
Dew Point 12 °F
Humidity 72%
Rainfall 0.00 in
Snow Depth Not available.
UV 1 out of 12
Pollen .10 out of 12
Air Quality Not available.
Flu Activity Not available.
METAR KFSW 272035Z AUTO 32007KT 10SM CLR M08/M13 A3047 RMK AO2

More Conditions Fewer Conditions

Pressure 30.47 in
Visibility 10.0 miles
Clouds Clear
Windchill 7 °F
Dew Point 12 °F
Humidity 72%
Rainfall 0.00 in
Snow Depth Not available.
UV 1 out of 12
Pollen .10 out of 12
Air Quality Not available.
Flu Activity Not available.
METAR KFSW 272035Z AUTO 32007KT 10SM CLR M08/M13 A3047 RMK AO2

More Conditions Fewer Conditions

10-Day Weather Forecast

Almanac

Astronomy

Nov. 27, 2014 Rise Set
Actual Time
Civil Twilight
Nautical Twilight
Astronomical Twilight
Moon
Length of Visible Light
Length of Day
Tomorrow will be .
, % of the Moon is Illuminated

Today's Extremes

State Highs State Lows

Community

WunderPhotos

Upload Photos

1,774,100 photos uploaded!

WunderBlogs® & News

Nearby

Air Quality

  Air Quality AQ Index Pollutant
Not available.

Snow Depth

Station Depth Elevation

Earthquake Activity

City Distance Mag. Time & Date
Minimum magnitude displayed is 2.5.

Coastal Water Temperatures

Place Temperature

Nearby Weather Stations